Time;durP1;ratioP1;P1;durP2;ratioP2;P2;SDS_P1;SDS_P2;PMS_P1;PMS_P2;Temp;Humidity;BMP_temperature;BMP_pressure;BME280_temperature;BME280_humidity;BME280_pressure;Samples;Min_cycle;Max_cycle;Signal;HPM_P1;HPM_P2
2021/10/28 00:12:22;;;;;;;43.43;26.70;;;8.30;99.90;;;;;;5058965;28;20208;-81
2021/10/28 00:14:56;;;;;;;43.67;27.83;;;8.30;99.90;;;;;;5059043;28;20169;-81
2021/10/28 00:20:08;;;;;;;48.10;29.23;;;8.40;99.90;;;;;;5059119;28;20195;-81
2021/10/28 00:22:35;;;;;;;47.13;29.03;;;8.50;99.90;;;;;;5058098;28;20209;-81
2021/10/28 00:25:01;;;;;;;48.90;28.93;;;8.50;99.90;;;;;;5059060;28;20172;-81
2021/10/28 00:27:26;;;;;;;44.50;28.57;;;8.50;99.90;;;;;;5057626;28;20554;-81
2021/10/28 00:29:52;;;;;;;44.97;28.60;;;8.50;99.90;;;;;;5056799;28;20185;-82
2021/10/28 00:32:18;;;;;;;47.67;29.10;;;8.60;99.90;;;;;;5057260;28;20598;-81
2021/10/28 00:34:44;;;;;;;54.97;29.37;;;8.60;99.90;;;;;;5058631;28;20199;-81
2021/10/28 00:37:11;;;;;;;49.20;29.77;;;8.60;99.90;;;;;;5056882;28;20196;-81
2021/10/28 00:39:37;;;;;;;51.27;29.80;;;8.60;99.90;;;;;;5057403;28;20185;-82
2021/10/28 00:42:04;;;;;;;50.37;30.73;;;8.60;99.90;;;;;;5056760;28;20295;-81
2021/10/28 00:44:29;;;;;;;52.03;29.57;;;8.60;99.90;;;;;;5058618;28;20181;-81
2021/10/28 00:46:55;;;;;;;50.87;30.17;;;8.60;99.90;;;;;;5057826;28;20177;-81
2021/10/28 00:49:21;;;;;;;47.93;29.70;;;8.60;99.90;;;;;;5058459;28;20568;-81
2021/10/28 00:51:47;;;;;;;50.40;29.17;;;8.70;99.90;;;;;;5055808;28;20178;-81
2021/10/28 00:54:17;;;;;;;52.03;30.50;;;8.70;99.90;;;;;;5056595;28;20561;-81
2021/10/28 00:56:43;;;;;;;53.03;30.70;;;8.70;99.90;;;;;;5057181;28;20181;-81
2021/10/28 00:59:10;;;;;;;50.17;31.23;;;8.70;99.90;;;;;;5039928;28;20177;-81
2021/10/28 01:01:36;;;;;;;48.10;30.87;;;8.60;99.90;;;;;;5057024;28;20197;-81
2021/10/28 01:04:02;;;;;;;46.13;28.87;;;8.70;99.90;;;;;;5056765;28;20679;-81
2021/10/28 01:06:28;;;;;;;48.90;30.30;;;8.70;99.90;;;;;;5056249;28;20233;-81
2021/10/28 01:08:54;;;;;;;48.83;29.90;;;8.70;99.90;;;;;;5057463;28;20196;-81
2021/10/28 01:11:20;;;;;;;54.77;31.03;;;8.70;99.90;;;;;;5056774;28;20173;-82
2021/10/28 01:13:45;;;;;;;53.23;31.60;;;8.70;99.90;;;;;;5057419;28;20208;-81
2021/10/28 01:16:11;;;;;;;50.30;29.93;;;8.70;99.90;;;;;;5051055;28;20184;-81
2021/10/28 01:18:38;;;;;;;46.43;29.27;;;8.70;99.90;;;;;;5046328;28;20250;-82
2021/10/28 01:21:09;;;;;;;47.47;29.93;;;8.70;99.90;;;;;;5057821;28;20239;-81
2021/10/28 01:23:36;;;;;;;49.40;30.73;;;8.70;99.90;;;;;;5056017;28;20255;-81
2021/10/28 01:26:10;;;;;;;46.87;29.73;;;8.70;99.90;;;;;;5056639;28;20174;-81
2021/10/28 01:28:39;;;;;;;48.87;29.93;;;8.70;99.90;;;;;;5057954;28;20693;-82
2021/10/28 01:31:09;;;;;;;44.27;29.03;;;8.70;99.90;;;;;;5057735;28;20256;-82
2021/10/28 01:33:36;;;;;;;47.60;30.80;;;8.70;99.90;;;;;;5056620;28;20207;-81
2021/10/28 01:36:02;;;;;;;56.37;32.47;;;8.80;99.90;;;;;;5055805;28;20173;-81
2021/10/28 01:38:28;;;;;;;54.40;32.00;;;8.80;99.90;;;;;;5057672;28;20182;-81
2021/10/28 01:41:02;;;;;;;51.47;29.97;;;8.80;99.90;;;;;;5055553;28;20204;-81
2021/10/28 01:43:29;;;;;;;53.47;31.80;;;8.80;99.90;;;;;;5056991;28;20259;-80
2021/10/28 01:45:55;;;;;;;50.23;29.90;;;8.80;99.90;;;;;;5060498;28;20175;-83
2021/10/28 01:48:22;;;;;;;50.50;29.67;;;8.80;99.90;;;;;;5059433;28;20198;-81
2021/10/28 01:50:48;;;;;;;47.57;30.00;;;8.80;99.90;;;;;;5057935;28;20239;-81
2021/10/28 01:53:15;;;;;;;52.50;31.17;;;8.80;99.90;;;;;;5032933;28;20895;-82
2021/10/28 01:55:41;;;;;;;50.63;30.30;;;8.80;99.90;;;;;;5020543;28;20543;-83
2021/10/28 01:58:08;;;;;;;47.37;30.30;;;8.80;99.90;;;;;;5033194;28;20185;-82
2021/10/28 02:00:35;;;;;;;49.03;30.27;;;8.80;99.90;;;;;;5045646;28;20173;-81
2021/10/28 02:03:01;;;;;;;51.40;30.07;;;8.80;99.90;;;;;;5039568;28;20204;-82
2021/10/28 02:05:27;;;;;;;50.43;30.80;;;8.80;99.90;;;;;;5032490;28;20543;-80
2021/10/28 02:07:52;;;;;;;51.13;30.57;;;8.80;99.90;;;;;;5027717;28;20650;-83
2021/10/28 02:10:23;;;;;;;51.33;30.57;;;8.80;99.90;;;;;;5026873;28;20193;-81
2021/10/28 02:12:49;;;;;;;51.83;31.17;;;8.80;99.90;;;;;;5023174;28;20201;-82
2021/10/28 02:15:18;;;;;;;52.67;30.80;;;8.80;99.90;;;;;;5019355;28;20205;-82
2021/10/28 02:17:43;;;;;;;49.93;30.90;;;8.80;99.90;;;;;;5017721;28;20202;-82
2021/10/28 02:20:11;;;;;;;56.30;32.70;;;8.80;99.90;;;;;;5021265;28;20685;-83
2021/10/28 02:22:37;;;;;;;51.27;31.80;;;8.80;99.90;;;;;;5023431;28;20294;-82
2021/10/28 02:25:05;;;;;;;53.73;30.70;;;8.80;99.90;;;;;;5023869;28;20670;-80
2021/10/28 02:27:31;;;;;;;52.63;31.97;;;8.80;99.90;;;;;;5019508;28;20168;-83
2021/10/28 02:29:57;;;;;;;54.67;31.63;;;8.80;99.90;;;;;;5020730;28;20182;-82
2021/10/28 02:32:23;;;;;;;55.03;32.43;;;8.90;99.90;;;;;;5017696;28;20198;-81
2021/10/28 02:34:49;;;;;;;55.77;32.13;;;8.90;99.90;;;;;;5018018;28;20317;-83
2021/10/28 02:37:17;;;;;;;50.97;30.83;;;8.90;99.90;;;;;;5023156;28;20175;-82
2021/10/28 02:39:43;;;;;;;51.57;32.03;;;8.90;99.90;;;;;;5026146;28;20221;-82
2021/10/28 02:42:09;;;;;;;51.90;32.97;;;8.90;99.90;;;;;;5021582;28;20202;-81
2021/10/28 02:44:35;;;;;;;57.30;31.80;;;8.90;99.90;;;;;;5020356;28;20175;-84
2021/10/28 02:47:01;;;;;;;53.73;32.07;;;9.00;99.90;;;;;;5021414;28;20171;-82
2021/10/28 02:49:27;;;;;;;55.63;30.67;;;9.00;99.90;;;;;;5018342;28;20183;-83
2021/10/28 02:51:53;;;;;;;56.73;30.97;;;9.00;99.90;;;;;;5022178;28;20171;-82
2021/10/28 02:54:21;;;;;;;53.17;29.93;;;9.00;99.90;;;;;;5048176;28;20235;-81
2021/10/28 02:56:47;;;;;;;53.77;29.57;;;9.00;99.90;;;;;;5045051;28;20242;-84
2021/10/28 02:59:13;;;;;;;58.57;32.70;;;9.00;99.90;;;;;;5043481;28;20205;-84
2021/10/28 03:01:52;;;;;;;56.80;31.20;;;8.90;99.90;;;;;;5060550;28;20214;-84
2021/10/28 03:04:20;;;;;;;51.57;30.77;;;8.90;99.90;;;;;;5060026;28;20170;-83
2021/10/28 03:06:47;;;;;;;50.00;28.80;;;8.90;99.90;;;;;;5058413;28;20554;-84
2021/10/28 03:09:18;;;;;;;44.13;27.13;;;8.80;99.90;;;;;;5050720;28;20170;-83
2021/10/28 03:11:46;;;;;;;46.03;28.07;;;8.80;99.90;;;;;;5059239;28;20516;-83
2021/10/28 03:14:13;;;;;;;48.50;27.93;;;8.80;99.90;;;;;;5039999;28;20668;-82
2021/10/28 03:16:57;;;;;;;56.00;29.57;;;8.80;99.90;;;;;;5025088;28;20179;-83
2021/10/28 03:27:17;;;;;;;56.37;28.93;;;8.60;99.90;;;;;;5026380;28;20217;-82
2021/10/28 03:29:42;;;;;;;59.80;28.73;;;8.70;99.90;;;;;;5028761;28;20168;-83
2021/10/28 03:32:08;;;;;;;52.03;28.60;;;8.70;99.90;;;;;;5022331;28;20198;-83
2021/10/28 03:34:35;;;;;;;59.40;29.00;;;8.70;99.90;;;;;;5022109;28;20214;-82
2021/10/28 03:37:05;;;;;;;53.17;28.30;;;8.70;99.90;;;;;;5020395;28;20183;-83
2021/10/28 04:16:55;;;;;;;47.33;25.27;;;8.30;99.90;;;;;;5059023;28;20667;-83
2021/10/28 04:30:15;;;;;;;50.57;26.53;;;8.30;99.90;;;;;;5058210;28;20170;-81
2021/10/28 04:32:41;;;;;;;54.70;27.37;;;8.30;99.90;;;;;;5057579;28;20239;-82
2021/10/28 04:35:10;;;;;;;52.03;27.07;;;8.30;99.90;;;;;;5058381;28;20188;-81
2021/10/28 04:37:39;;;;;;;52.33;27.10;;;8.30;99.90;;;;;;5022164;28;20183;-81
2021/10/28 04:40:06;;;;;;;50.30;26.70;;;8.30;99.90;;;;;;5055258;28;20341;-81
2021/10/28 04:42:32;;;;;;;48.73;25.47;;;8.30;99.90;;;;;;5037034;28;20684;-83
2021/10/28 04:44:58;;;;;;;47.50;25.20;;;8.40;99.90;;;;;;5019565;28;20183;-82
2021/10/28 04:47:24;;;;;;;44.97;26.13;;;8.40;99.90;;;;;;5018591;28;20181;-82
2021/10/28 04:49:50;;;;;;;48.00;26.03;;;8.40;99.90;;;;;;5018514;28;20179;-82
2021/10/28 04:52:15;;;;;;;43.27;25.00;;;8.30;99.90;;;;;;5029827;28;20205;-81
2021/10/28 04:54:42;;;;;;;45.07;24.83;;;8.40;99.90;;;;;;5056608;28;20281;-81
2021/10/28 04:57:07;;;;;;;47.47;24.80;;;8.40;99.90;;;;;;5056341;28;20558;-83
2021/10/28 04:59:33;;;;;;;50.13;27.80;;;8.40;99.90;;;;;;5040241;28;20186;-83
2021/10/28 05:01:59;;;;;;;45.10;26.10;;;8.40;99.90;;;;;;5056380;28;20215;-82
2021/10/28 05:04:25;;;;;;;47.70;26.53;;;8.30;99.90;;;;;;5043668;28;20241;-82
2021/10/28 05:06:51;;;;;;;46.83;26.93;;;8.30;99.90;;;;;;5032610;28;20206;-81
2021/10/28 05:09:18;;;;;;;39.20;25.63;;;8.30;99.90;;;;;;5032824;28;20170;-82
2021/10/28 05:11:46;;;;;;;42.20;25.20;;;8.40;99.90;;;;;;5052893;28;20672;-82
2021/10/28 05:14:11;;;;;;;40.67;25.63;;;8.30;99.90;;;;;;5056858;28;20852;-82
2021/10/28 05:16:37;;;;;;;42.20;26.17;;;8.40;99.90;;;;;;5034100;28;20260;-83
2021/10/28 05:19:03;;;;;;;41.07;26.17;;;8.30;99.90;;;;;;5056395;28;20254;-83
2021/10/28 05:21:29;;;;;;;37.40;24.67;;;8.30;99.90;;;;;;5056024;28;20686;-82
2021/10/28 05:23:55;;;;;;;39.93;24.77;;;8.30;99.90;;;;;;5051074;28;20203;-83
2021/10/28 05:26:20;;;;;;;38.07;25.00;;;8.30;99.90;;;;;;5052748;28;20173;-82
2021/10/28 05:28:46;;;;;;;45.47;26.57;;;8.30;99.90;;;;;;5058293;28;20583;-82
2021/10/28 05:31:12;;;;;;;43.37;25.80;;;8.20;99.90;;;;;;5045790;28;20645;-83
2021/10/28 05:33:37;;;;;;;40.67;26.10;;;8.20;99.90;;;;;;5025808;28;20214;-82
2021/10/28 05:36:03;;;;;;;38.40;24.63;;;8.20;99.90;;;;;;5044510;28;20292;-82
2021/10/28 05:38:29;;;;;;;47.23;26.30;;;8.20;99.90;;;;;;5057832;28;20185;-82
2021/10/28 05:40:55;;;;;;;42.57;26.53;;;8.20;99.90;;;;;;5048172;28;20744;-81
2021/10/28 05:43:20;;;;;;;43.40;26.43;;;8.20;99.90;;;;;;5024756;28;20223;-81
2021/10/28 05:45:48;;;;;;;40.67;25.60;;;8.20;99.90;;;;;;5047954;28;20181;-81
2021/10/28 05:48:13;;;;;;;39.23;25.17;;;8.30;99.90;;;;;;5058194;28;20747;-81
2021/10/28 05:50:41;;;;;;;42.70;26.53;;;8.20;99.90;;;;;;5039831;28;20257;-82
2021/10/28 05:53:08;;;;;;;39.63;26.03;;;8.10;99.90;;;;;;5019849;28;20909;-83
2021/10/28 05:55:34;;;;;;;40.30;25.70;;;8.20;99.90;;;;;;5025764;28;20540;-83
2021/10/28 05:57:59;;;;;;;42.10;25.77;;;8.10;99.90;;;;;;5023859;28;20178;-82
2021/10/28 06:00:25;;;;;;;39.50;25.77;;;8.10;99.90;;;;;;5021614;28;20223;-83
2021/10/28 06:02:51;;;;;;;40.00;24.60;;;8.20;99.90;;;;;;5017397;28;20773;-84
2021/10/28 06:05:17;;;;;;;39.40;25.07;;;8.20;99.90;;;;;;5019112;28;20170;-83
2021/10/28 06:07:43;;;;;;;42.20;25.63;;;8.20;99.90;;;;;;5017678;28;20171;-80
2021/10/28 06:10:11;;;;;;;36.10;24.07;;;8.10;99.90;;;;;;5019910;28;20697;-83
2021/10/28 06:12:39;;;;;;;38.93;24.47;;;8.10;99.90;;;;;;5016068;28;20203;-83
2021/10/28 06:15:07;;;;;;;35.70;24.07;;;8.20;99.90;;;;;;5020792;28;20650;-81
2021/10/28 06:17:35;;;;;;;36.97;22.87;;;8.20;99.90;;;;;;5021682;28;20171;-83
2021/10/28 06:20:03;;;;;;;34.33;22.57;;;8.20;99.90;;;;;;5025103;28;20675;-82
2021/10/28 06:22:30;;;;;;;34.10;22.67;;;8.10;99.90;;;;;;5044778;28;20303;-82
2021/10/28 06:24:57;;;;;;;31.50;22.73;;;8.20;99.90;;;;;;5035819;28;20176;-82
2021/10/28 06:27:24;;;;;;;35.77;23.40;;;8.20;99.90;;;;;;5057950;28;20169;-82
2021/10/28 06:29:50;;;;;;;38.67;25.30;;;8.20;99.90;;;;;;5060755;28;20729;-82
2021/10/28 06:32:15;;;;;;;38.80;24.13;;;8.20;99.90;;;;;;5045078;28;20237;-82
2021/10/28 06:34:46;;;;;;;32.00;21.10;;;8.20;99.90;;;;;;5026293;28;20191;-81
2021/10/28 06:37:12;;;;;;;32.90;23.37;;;8.20;99.90;;;;;;5020830;28;20185;-83
2021/10/28 06:39:38;;;;;;;31.07;21.77;;;8.20;99.90;;;;;;5023991;28;20183;-82
2021/10/28 06:42:05;;;;;;;32.33;22.73;;;8.20;99.90;;;;;;5020732;28;20225;-82
2021/10/28 06:44:31;;;;;;;28.03;21.07;;;8.20;99.90;;;;;;5021263;28;20182;-82
2021/10/28 06:46:56;;;;;;;30.07;21.03;;;8.20;99.90;;;;;;5034103;28;20174;-81
2021/10/28 06:49:23;;;;;;;27.70;20.73;;;8.20;99.90;;;;;;5061048;28;20193;-81
2021/10/28 06:51:49;;;;;;;30.10;20.93;;;8.30;99.90;;;;;;5061158;28;20192;-81
2021/10/28 07:04:51;;;;;;;61.63;21.83;;;8.30;99.90;;;;;;5061590;28;20219;-81
2021/10/28 07:07:18;;;;;;;29.43;19.87;;;8.30;99.90;;;;;;5051144;28;20206;-82
2021/10/28 07:09:50;;;;;;;28.70;19.90;;;8.30;99.90;;;;;;5058720;28;20545;-82
2021/10/28 07:15:06;;;;;;;30.60;19.63;;;8.30;99.90;;;;;;5049064;28;20265;-82
2021/10/28 07:17:45;;;;;;;25.60;18.33;;;8.30;99.90;;;;;;5025107;28;20175;-82
2021/10/28 07:20:25;;;;;;;26.67;19.80;;;8.30;99.90;;;;;;5058399;28;20169;-81
2021/10/28 07:25:59;;;;;;;25.17;18.90;;;8.20;99.90;;;;;;5043603;28;20189;-82
2021/10/28 07:28:41;;;;;;;45.50;20.90;;;8.20;99.90;;;;;;5032491;28;20591;-81
2021/10/28 08:06:21;;;;;;;27.67;19.97;;;8.60;99.90;;;;;;5024044;28;20594;-82
2021/10/28 08:22:01;;;;;;;29.00;19.20;;;8.50;99.90;;;;;;5027989;28;20218;-82
2021/10/28 08:29:38;;;;;;;39.87;20.10;;;8.60;99.90;;;;;;5031970;28;20185;-82
2021/10/28 08:32:07;;;;;;;36.33;20.27;;;8.50;99.90;;;;;;5025379;28;20171;-83
2021/10/28 08:34:36;;;;;;;26.23;19.30;;;8.50;99.90;;;;;;5030772;28;20202;-84
2021/10/28 08:37:11;;;;;;;30.23;19.07;;;8.40;99.90;;;;;;5027146;28;20238;-83
2021/10/28 08:39:49;;;;;;;29.93;19.40;;;8.40;99.90;;;;;;5023977;28;20175;-82
2021/10/28 08:42:18;;;;;;;26.13;19.00;;;8.50;99.90;;;;;;5024115;28;20214;-83
2021/10/28 08:44:50;;;;;;;26.37;18.70;;;8.50;99.90;;;;;;5022806;28;20179;-83
2021/10/28 08:47:17;;;;;;;34.27;20.27;;;8.60;99.90;;;;;;5021722;28;20224;-83
2021/10/28 08:49:56;;;;;;;31.43;20.97;;;8.60;99.90;;;;;;5021462;28;20227;-83
2021/10/28 08:52:38;;;;;;;40.13;20.00;;;8.60;99.90;;;;;;5027278;28;20198;-82
2021/10/28 08:55:29;;;;;;;26.13;19.10;;;8.60;99.90;;;;;;5022219;28;20235;-82
2021/10/28 08:58:34;;;;;;;26.00;18.77;;;8.60;99.90;;;;;;5024274;28;20311;-83
2021/10/28 09:24:06;;;;;;;112.53;25.67;;;8.60;99.90;;;;;;5033222;28;20202;-84
2021/10/28 09:52:01;;;;;;;27.30;19.60;;;8.80;99.90;;;;;;5040169;28;20184;-83
2021/10/28 09:54:44;;;;;;;27.50;19.77;;;8.90;99.90;;;;;;5029656;28;20182;-81
2021/10/28 10:00:16;;;;;;;23.43;19.10;;;9.00;99.90;;;;;;5035204;28;20216;-82
2021/10/28 10:02:45;;;;;;;25.90;19.53;;;9.00;99.90;;;;;;5024324;28;20219;-82
2021/10/28 10:05:26;;;;;;;26.93;19.23;;;8.90;99.90;;;;;;5033663;28;20179;-83
2021/10/28 10:07:53;;;;;;;28.97;19.83;;;8.90;99.90;;;;;;5029833;28;20171;-82
2021/10/28 10:10:20;;;;;;;24.57;18.60;;;9.00;99.90;;;;;;5032964;28;20217;-82
2021/10/28 10:12:47;;;;;;;31.87;18.87;;;9.00;99.90;;;;;;5030226;28;20207;-81
2021/10/28 10:15:14;;;;;;;28.67;19.30;;;8.90;99.90;;;;;;5031016;28;20186;-83
2021/10/28 10:17:41;;;;;;;25.93;18.87;;;8.90;99.90;;;;;;5031662;28;20202;-82
2021/10/28 10:20:12;;;;;;;26.67;18.87;;;8.90;99.90;;;;;;5038762;28;20182;-82
2021/10/28 10:22:51;;;;;;;23.77;16.80;;;9.00;99.90;;;;;;5044214;28;20201;-82
2021/10/28 10:25:47;;;;;;;26.93;19.43;;;9.10;99.90;;;;;;5032240;28;20256;-84
2021/10/28 11:31:17;;;;;;;27.70;19.37;;;9.60;99.90;;;;;;5062243;28;20197;-82
2021/10/28 12:14:30;;;;;;;29.17;20.40;;;10.00;99.90;;;;;;5059039;28;20187;-82
2021/10/28 12:16:08;;;;;;;30.03;20.20;;;10.10;99.90;;;;;;5058121;28;20247;-82
2021/10/28 12:25:40;;;;;;;29.77;20.57;;;10.30;99.90;;;;;;5027419;28;20272;-82
2021/10/28 13:48:45;;;;;;;26.17;18.23;;;10.90;99.90;;;;;;5060026;28;20241;-82
2021/10/28 13:51:24;;;;;;;26.90;18.43;;;10.90;99.90;;;;;;5057062;28;20184;-82
2021/10/28 14:33:58;;;;;;;22.77;17.80;;;11.30;99.90;;;;;;5059411;28;20290;-82
2021/10/28 16:24:14;;;;;;;63.17;35.73;;;10.10;99.90;;;;;;5001767;28;20249;-79
2021/10/28 16:26:39;;;;;;;71.03;38.20;;;10.00;99.90;;;;;;5004151;28;20191;-79
2021/10/28 16:29:07;;;;;;;54.87;31.60;;;9.90;99.90;;;;;;5004567;28;20222;-79
2021/10/28 16:31:36;;;;;;;59.93;31.77;;;9.80;99.90;;;;;;5003483;28;20628;-79
2021/10/28 16:34:03;;;;;;;59.33;32.17;;;9.80;99.90;;;;;;5003756;28;20179;-79
2021/10/28 16:36:29;;;;;;;59.27;33.27;;;9.70;99.90;;;;;;5003431;28;20199;-78
2021/10/28 16:38:57;;;;;;;58.33;32.43;;;9.70;99.90;;;;;;5005929;28;20522;-80
2021/10/28 16:41:23;;;;;;;55.37;31.23;;;9.60;99.90;;;;;;5003312;28;20223;-79
2021/10/28 16:43:48;;;;;;;57.80;31.90;;;9.60;99.90;;;;;;5005674;28;20549;-79
2021/10/28 16:46:14;;;;;;;51.97;28.90;;;9.50;99.90;;;;;;5004973;28;20258;-80
2021/10/28 16:48:41;;;;;;;49.37;28.47;;;9.50;99.90;;;;;;5005197;28;20176;-79
2021/10/28 16:51:06;;;;;;;49.17;25.93;;;9.30;99.90;;;;;;5005455;28;20195;-79
2021/10/28 16:53:33;;;;;;;43.70;25.80;;;9.40;99.90;;;;;;5005441;28;20180;-79
2021/10/28 16:55:59;;;;;;;44.97;27.50;;;9.30;99.90;;;;;;5004677;28;20588;-79
2021/10/28 16:58:25;;;;;;;37.37;23.67;;;9.30;99.90;;;;;;5004664;28;20262;-79
2021/10/28 17:00:53;;;;;;;43.03;25.00;;;9.20;99.90;;;;;;5003012;28;20203;-78
2021/10/28 17:03:19;;;;;;;41.03;24.27;;;9.20;99.90;;;;;;5003864;28;20188;-79
2021/10/28 17:05:46;;;;;;;38.47;24.63;;;9.10;99.90;;;;;;5001617;28;20202;-79
2021/10/28 17:08:12;;;;;;;51.97;33.47;;;9.10;99.90;;;;;;4990956;28;20192;-79
2021/10/28 17:10:38;;;;;;;44.00;24.63;;;9.00;99.90;;;;;;4999545;28;20176;-79
2021/10/28 17:13:05;;;;;;;39.87;24.80;;;9.00;99.90;;;;;;5018622;28;20192;-79
2021/10/28 17:15:30;;;;;;;40.47;25.80;;;9.00;99.90;;;;;;4992823;28;20293;-79
2021/10/28 17:17:56;;;;;;;40.00;23.10;;;8.90;99.90;;;;;;4997680;28;20203;-79
2021/10/28 17:20:22;;;;;;;35.00;21.70;;;8.90;99.90;;;;;;4999387;28;20235;-79
2021/10/28 17:22:49;;;;;;;45.10;25.40;;;8.90;99.90;;;;;;4998039;28;20248;-79
2021/10/28 17:25:20;;;;;;;40.60;24.20;;;8.80;99.90;;;;;;4988094;28;20600;-79
2021/10/28 17:27:47;;;;;;;37.47;22.73;;;8.80;99.90;;;;;;5003127;28;20179;-79
2021/10/28 17:30:15;;;;;;;38.63;22.80;;;8.70;99.90;;;;;;4992720;28;20290;-79
2021/10/28 17:32:43;;;;;;;36.53;22.97;;;8.60;99.90;;;;;;5016599;28;20220;-79
2021/10/28 17:35:10;;;;;;;37.57;23.33;;;8.60;99.90;;;;;;5002834;28;20202;-79
2021/10/28 17:37:36;;;;;;;41.10;23.30;;;8.50;99.90;;;;;;4995678;28;20188;-79
2021/10/28 17:40:02;;;;;;;34.97;22.50;;;8.50;99.90;;;;;;4998323;28;20211;-79
2021/10/28 17:42:28;;;;;;;35.80;23.17;;;8.50;99.90;;;;;;5008696;28;20207;-79
2021/10/28 17:44:57;;;;;;;35.73;22.67;;;8.40;99.90;;;;;;5001158;28;20176;-79
2021/10/28 17:47:24;;;;;;;37.60;22.57;;;8.30;99.90;;;;;;5003526;28;20191;-79
2021/10/28 17:49:50;;;;;;;35.93;23.50;;;8.30;99.90;;;;;;4999356;28;20265;-79
2021/10/28 17:52:17;;;;;;;52.90;30.33;;;8.30;99.90;;;;;;5000292;28;20211;-79
2021/10/28 17:54:44;;;;;;;82.23;44.30;;;8.20;99.90;;;;;;4995372;28;20179;-79
2021/10/28 17:57:10;;;;;;;43.73;26.70;;;8.20;99.90;;;;;;4999483;28;20180;-79
2021/10/28 17:59:36;;;;;;;65.90;37.37;;;8.20;99.90;;;;;;4991694;28;20180;-79
2021/10/28 18:02:02;;;;;;;57.53;33.13;;;8.20;99.90;;;;;;5000085;28;20204;-78
2021/10/28 18:04:28;;;;;;;53.53;31.73;;;8.10;99.90;;;;;;5002547;28;20183;-79
2021/10/28 18:06:53;;;;;;;52.73;31.30;;;8.10;99.90;;;;;;5001255;28;20208;-80
2021/10/28 18:09:23;;;;;;;53.57;31.73;;;8.00;99.90;;;;;;5000992;28;20196;-79
2021/10/28 18:11:52;;;;;;;53.60;32.17;;;8.10;99.90;;;;;;4998442;28;20236;-80
2021/10/28 18:14:18;;;;;;;44.50;28.03;;;8.00;99.90;;;;;;5002365;28;20198;-80
2021/10/28 18:16:44;;;;;;;40.60;24.70;;;8.10;99.90;;;;;;5002472;28;20238;-79
2021/10/28 18:19:10;;;;;;;42.23;27.40;;;8.00;99.90;;;;;;5000026;28;20220;-79
2021/10/28 18:21:40;;;;;;;48.17;30.23;;;8.00;99.90;;;;;;5012829;28;20199;-79
2021/10/28 18:24:06;;;;;;;47.90;28.73;;;8.00;99.90;;;;;;4996060;28;20188;-79
2021/10/28 18:26:32;;;;;;;45.67;28.93;;;8.00;99.90;;;;;;4996202;28;20293;-80
2021/10/28 18:28:58;;;;;;;46.67;28.63;;;8.00;99.90;;;;;;5002577;28;20214;-79
2021/10/28 18:31:27;;;;;;;42.33;27.03;;;8.00;99.90;;;;;;5000356;28;20197;-79
2021/10/28 18:33:52;;;;;;;42.33;26.63;;;8.00;99.90;;;;;;5004795;28;20191;-80
2021/10/28 18:36:18;;;;;;;43.00;26.60;;;8.00;99.90;;;;;;5003044;28;20301;-79
2021/10/28 18:38:46;;;;;;;44.00;26.80;;;8.00;99.90;;;;;;5005960;28;20221;-79
2021/10/28 18:41:16;;;;;;;40.83;26.07;;;8.20;99.90;;;;;;5000286;28;20183;-78
2021/10/28 18:43:43;;;;;;;39.13;25.60;;;7.90;99.90;;;;;;5000374;28;20249;-80
2021/10/28 18:46:10;;;;;;;41.13;25.70;;;7.90;99.90;;;;;;5007444;28;20208;-79
2021/10/28 18:48:36;;;;;;;39.47;25.17;;;8.00;99.90;;;;;;5018013;28;20192;-80
2021/10/28 18:51:02;;;;;;;36.53;23.37;;;7.90;99.90;;;;;;5004535;28;20266;-79
2021/10/28 18:53:28;;;;;;;40.77;24.80;;;7.90;99.90;;;;;;5002970;28;20206;-79
2021/10/28 18:55:55;;;;;;;38.90;24.90;;;7.90;99.90;;;;;;4994994;28;20195;-79
2021/10/28 18:58:21;;;;;;;41.47;26.10;;;7.90;99.90;;;;;;5009049;28;20501;-79
2021/10/28 19:00:50;;;;;;;37.13;24.77;;;7.90;99.90;;;;;;5002132;28;20184;-79
2021/10/28 19:03:18;;;;;;;39.13;25.43;;;7.80;99.90;;;;;;5002613;28;20290;-79
2021/10/28 19:05:44;;;;;;;38.83;25.43;;;7.80;99.90;;;;;;4994916;28;20204;-79
2021/10/28 19:08:12;;;;;;;39.83;25.07;;;7.80;99.90;;;;;;5002105;28;20215;-79
2021/10/28 19:10:38;;;;;;;39.87;26.70;;;7.80;99.90;;;;;;5000136;28;20183;-79
2021/10/28 19:13:04;;;;;;;41.53;26.37;;;7.70;99.90;;;;;;5004661;28;20295;-79
2021/10/28 19:15:30;;;;;;;42.67;25.63;;;7.70;99.90;;;;;;5010860;28;20931;-79
2021/10/28 19:17:56;;;;;;;42.03;26.70;;;7.70;99.90;;;;;;4994508;28;20204;-79
2021/10/28 19:20:22;;;;;;;42.07;27.10;;;7.70;99.90;;;;;;4999058;28;20194;-79
2021/10/28 19:22:48;;;;;;;39.87;24.97;;;7.70;99.90;;;;;;4992213;28;20267;-79
2021/10/28 19:25:14;;;;;;;36.10;24.30;;;7.60;99.90;;;;;;4986849;28;20276;-79
2021/10/28 19:27:40;;;;;;;34.27;23.70;;;7.60;99.90;;;;;;5012193;28;20168;-79
2021/10/28 19:33:07;;;;;;;37.97;25.17;;;7.50;99.90;;;;;;4996635;28;20215;-78
2021/10/28 19:35:35;;;;;;;39.10;24.03;;;7.30;99.90;;;;;;4993461;28;20218;-79
2021/10/28 19:38:15;;;;;;;35.13;23.90;;;7.40;99.90;;;;;;4993550;28;20211;-78
2021/10/28 19:41:04;;;;;;;36.23;24.10;;;7.30;99.90;;;;;;4999989;28;20685;-79
2021/10/28 19:46:14;;;;;;;38.57;22.13;;;7.30;99.90;;;;;;4997668;28;20245;-79
2021/10/28 19:48:40;;;;;;;31.83;21.87;;;7.20;99.90;;;;;;4999144;28;20254;-79
2021/10/28 19:51:08;;;;;;;35.60;22.60;;;7.20;99.90;;;;;;4998113;28;20239;-78
2021/10/28 19:53:33;;;;;;;38.27;23.63;;;7.20;99.90;;;;;;4998054;28;20202;-79
2021/10/28 19:56:08;;;;;;;32.47;22.80;;;7.00;99.90;;;;;;4998337;28;20204;-79
2021/10/28 19:58:48;;;;;;;30.77;21.63;;;7.10;99.90;;;;;;4993087;28;20721;-79
2021/10/28 20:03:57;;;;;;;35.20;22.77;;;7.10;99.90;;;;;;4994574;28;20183;-80
2021/10/28 20:22:31;;;;;;;28.90;21.23;;;7.20;99.90;;;;;;4996597;28;20280;-80
2021/10/28 20:24:57;;;;;;;29.27;21.00;;;7.20;99.90;;;;;;4994329;28;20171;-83
2021/10/28 20:27:24;;;;;;;29.40;20.30;;;7.20;99.90;;;;;;4985991;28;20408;-80
2021/10/28 20:29:50;;;;;;;30.27;20.40;;;7.10;99.90;;;;;;4998137;28;20222;-80
2021/10/28 20:32:17;;;;;;;29.23;19.83;;;7.10;99.90;;;;;;4998601;28;20198;-80
2021/10/28 20:35:05;;;;;;;32.53;21.87;;;7.10;99.90;;;;;;4998129;28;20171;-79
2021/10/28 20:37:32;;;;;;;31.60;22.23;;;7.00;99.90;;;;;;4997957;28;20176;-79
2021/10/28 20:39:58;;;;;;;28.27;20.50;;;7.10;99.90;;;;;;4997482;28;20186;-80
2021/10/28 20:42:24;;;;;;;31.60;22.40;;;7.00;99.90;;;;;;4996961;28;20213;-80
2021/10/28 20:44:50;;;;;;;33.47;23.03;;;7.00;99.90;;;;;;4996266;28;20172;-79
2021/10/28 20:47:16;;;;;;;32.80;23.20;;;7.10;99.90;;;;;;4996894;28;20187;-80
2021/10/28 20:49:42;;;;;;;31.97;22.37;;;7.10;99.90;;;;;;4997197;28;20180;-80
2021/10/28 20:52:08;;;;;;;31.53;22.77;;;7.10;99.90;;;;;;4996585;28;20257;-80
2021/10/28 20:54:35;;;;;;;28.70;20.70;;;7.10;99.90;;;;;;4995805;28;20593;-79
2021/10/28 20:57:03;;;;;;;29.37;21.03;;;7.00;99.90;;;;;;4995516;28;20282;-79
2021/10/28 20:59:30;;;;;;;31.67;21.23;;;6.90;99.90;;;;;;4997277;28;20182;-79
2021/10/28 21:01:56;;;;;;;30.13;21.17;;;7.10;99.90;;;;;;4993113;28;20671;-81
2021/10/28 21:04:23;;;;;;;27.07;18.83;;;7.10;99.90;;;;;;4993969;28;20175;-80
2021/10/28 21:06:49;;;;;;;26.07;19.03;;;6.80;99.90;;;;;;4998342;28;20204;-80
2021/10/28 21:09:16;;;;;;;27.93;19.30;;;6.70;99.90;;;;;;4993827;28;20182;-80
2021/10/28 21:11:45;;;;;;;26.93;19.03;;;6.70;99.90;;;;;;4994930;28;20238;-80
2021/10/28 21:14:12;;;;;;;26.67;19.37;;;6.70;99.90;;;;;;4996214;28;20426;-79
2021/10/28 21:16:38;;;;;;;25.93;18.43;;;;;;;;;;4996603;28;20196;-80
2021/10/28 21:19:04;;;;;;;26.50;18.87;;;6.60;99.90;;;;;;4995318;28;20179;-80
2021/10/28 21:21:30;;;;;;;26.40;19.07;;;6.80;99.90;;;;;;4995624;28;20284;-79
2021/10/28 21:23:56;;;;;;;27.27;19.97;;;6.60;99.90;;;;;;4998168;28;20182;-80
2021/10/28 21:26:22;;;;;;;30.00;20.27;;;6.50;99.90;;;;;;4997723;28;20573;-80
2021/10/28 21:28:47;;;;;;;32.23;21.33;;;6.50;99.90;;;;;;4996978;28;20565;-79
2021/10/28 21:31:14;;;;;;;28.93;20.13;;;6.40;99.90;;;;;;4997399;28;20180;-80
2021/10/28 21:33:41;;;;;;;28.40;20.40;;;6.50;99.90;;;;;;4997953;28;20175;-80
2021/10/28 21:36:07;;;;;;;31.33;20.30;;;6.50;99.90;;;;;;4997809;28;20202;-79
2021/10/28 21:38:33;;;;;;;27.77;20.17;;;6.50;99.90;;;;;;4998554;28;20182;-80
2021/10/28 21:40:59;;;;;;;27.57;19.80;;;6.50;99.90;;;;;;4998476;28;20180;-80
2021/10/28 21:43:25;;;;;;;29.67;20.50;;;6.60;99.90;;;;;;4995830;28;20242;-80
2021/10/28 21:45:51;;;;;;;25.87;19.20;;;6.50;99.90;;;;;;4991054;28;20226;-80
2021/10/28 21:48:21;;;;;;;26.17;18.83;;;6.60;99.90;;;;;;5047506;23;20690;-78
2021/10/28 21:50:57;;;;;;;24.03;18.40;;;6.50;99.90;;;;;;5033657;28;20254;-77
2021/10/28 21:53:23;;;;;;;25.97;19.00;;;6.40;99.90;;;;;;5033908;28;20170;-76